createdAt,value
2023-05-21T00:00:31.301Z,6.38
2023-05-21T00:02:59.175Z,6.40
2023-05-21T00:05:26.496Z,6.13
2023-05-21T00:07:54.939Z,6.40
2023-05-21T00:10:22.171Z,6.80
2023-05-21T00:12:49.122Z,6.60
2023-05-21T00:15:16.114Z,6.35
2023-05-21T00:17:43.694Z,6.53
2023-05-21T00:20:11.086Z,6.77
2023-05-21T00:22:38.079Z,6.53
2023-05-21T00:25:05.300Z,6.63
2023-05-21T00:27:32.359Z,6.80
2023-05-21T00:29:59.363Z,6.60
2023-05-21T00:32:26.641Z,6.70
2023-05-21T00:34:54.253Z,6.10
2023-05-21T00:37:21.866Z,6.50
2023-05-21T00:39:48.819Z,6.57
2023-05-21T00:42:18.153Z,6.40
2023-05-21T00:44:45.637Z,6.70
2023-05-21T00:47:18.366Z,6.70
2023-05-21T00:49:45.621Z,7.10
2023-05-21T00:52:12.636Z,6.90
2023-05-21T00:54:39.810Z,6.07
2023-05-21T00:57:06.895Z,7.43
2023-05-21T00:59:34.176Z,6.97
2023-05-21T01:02:04.307Z,6.60
2023-05-21T01:04:32.233Z,6.97
2023-05-21T01:06:59.282Z,6.80
2023-05-21T01:09:27.056Z,7.70
2023-05-21T01:11:55.825Z,7.25
2023-05-21T01:14:24.173Z,7.82
2023-05-21T01:16:52.487Z,7.28
2023-05-21T01:19:22.126Z,7.63
2023-05-21T01:22:09.928Z,7.70
2023-05-21T01:24:37.036Z,7.57
2023-05-21T01:27:07.680Z,7.60
2023-05-21T01:29:34.773Z,7.90
2023-05-21T01:32:04.596Z,8.10
2023-05-21T01:34:45.980Z,8.45
2023-05-21T01:37:26.858Z,8.48
2023-05-21T01:40:08.912Z,8.10
2023-05-21T01:42:38.998Z,8.63
2023-05-21T01:45:08.024Z,8.50
2023-05-21T01:47:37.023Z,8.32
2023-05-21T01:50:05.674Z,8.85
2023-05-21T01:52:32.752Z,8.80
2023-05-21T01:55:00.441Z,9.20
2023-05-21T01:57:27.605Z,8.52
2023-05-21T01:59:56.307Z,8.95
2023-05-21T02:02:23.285Z,8.60
2023-05-21T02:04:50.471Z,9.20
2023-05-21T02:07:18.834Z,8.27
2023-05-21T02:09:45.915Z,8.70
2023-05-21T02:12:12.932Z,9.30
2023-05-21T02:14:39.896Z,9.80
2023-05-21T02:17:08.230Z,8.80
2023-05-21T02:19:35.349Z,9.07
2023-05-21T02:22:02.578Z,9.33
2023-05-21T02:24:29.579Z,9.73
2023-05-21T02:26:56.687Z,9.67
2023-05-21T02:29:23.745Z,9.93
2023-05-21T02:31:51.406Z,10.00
2023-05-21T02:34:23.164Z,9.80
2023-05-21T02:36:52.419Z,9.70
2023-05-21T02:39:19.986Z,10.10
2023-05-21T02:41:47.315Z,10.00
2023-05-21T02:44:14.375Z,10.30
2023-05-21T02:46:41.375Z,10.20
2023-05-21T02:49:08.412Z,9.63
2023-05-21T02:51:35.532Z,9.63
2023-05-21T02:54:02.514Z,10.88
2023-05-21T02:56:29.544Z,10.20
2023-05-21T02:58:56.628Z,10.50
2023-05-21T03:01:23.778Z,11.18
2023-05-21T03:03:50.862Z,9.88
2023-05-21T03:06:18.006Z,10.00
2023-05-21T03:08:45.006Z,10.00
2023-05-21T03:11:12.087Z,10.15
2023-05-21T03:13:39.286Z,10.70
2023-05-21T03:16:06.357Z,10.27
2023-05-21T03:18:33.386Z,11.38
2023-05-21T03:21:00.408Z,11.25
2023-05-21T03:23:27.500Z,10.60
2023-05-21T03:25:54.496Z,10.63
2023-05-21T03:28:21.533Z,10.50
2023-05-21T03:30:52.174Z,10.48
2023-05-21T03:33:19.970Z,11.35
2023-05-21T03:35:47.083Z,10.87
2023-05-21T03:38:14.230Z,10.67
2023-05-21T03:40:41.180Z,11.10
2023-05-21T03:43:08.394Z,11.10
2023-05-21T03:45:35.814Z,11.60
2023-05-21T03:48:03.200Z,11.35
2023-05-21T03:50:30.201Z,11.70
2023-05-21T03:52:57.567Z,11.05
2023-05-21T03:55:24.672Z,11.10
2023-05-21T03:57:51.659Z,11.07
2023-05-21T04:00:18.924Z,11.50
2023-05-21T04:02:46.013Z,11.50
2023-05-21T04:05:13.093Z,11.07
2023-05-21T04:07:40.042Z,11.20
2023-05-21T04:10:07.614Z,12.30
2023-05-21T04:12:34.644Z,11.27
2023-05-21T04:15:02.681Z,11.80
2023-05-21T04:17:29.754Z,11.90
2023-05-21T04:19:56.817Z,11.80
2023-05-21T04:22:26.563Z,12.00
2023-05-21T04:24:54.700Z,11.60
2023-05-21T04:27:23.820Z,12.82
2023-05-21T04:29:51.049Z,11.60
2023-05-21T04:32:18.129Z,12.00
2023-05-21T04:34:45.272Z,12.47
2023-05-21T04:37:12.386Z,12.00
2023-05-21T04:39:41.126Z,12.35
2023-05-21T04:42:11.009Z,12.63
2023-05-21T04:44:40.340Z,12.48
2023-05-21T04:47:08.091Z,12.55
2023-05-21T04:49:35.335Z,12.50
2023-05-21T04:52:02.773Z,12.18
2023-05-21T04:54:30.090Z,12.10
2023-05-21T04:56:58.173Z,12.35
2023-05-21T04:59:25.309Z,11.48
2023-05-21T05:01:52.771Z,12.00
2023-05-21T05:04:19.868Z,11.98
2023-05-21T05:06:47.337Z,11.73
2023-05-21T05:09:14.498Z,11.57
2023-05-21T05:11:41.483Z,11.90
2023-05-21T05:14:08.617Z,11.88
2023-05-21T05:16:36.414Z,12.43
2023-05-21T05:19:03.528Z,12.48
2023-05-21T05:21:30.782Z,12.60
2023-05-21T05:23:57.812Z,12.45
2023-05-21T05:26:25.514Z,12.90
2023-05-21T05:28:52.784Z,13.50
2023-05-21T05:31:19.813Z,12.70
2023-05-21T05:33:47.155Z,12.70
2023-05-21T05:36:14.231Z,12.63
2023-05-21T05:38:41.285Z,12.43
2023-05-21T05:41:08.502Z,13.05
2023-05-21T05:43:35.602Z,12.52
2023-05-21T05:46:02.669Z,14.43
2023-05-21T05:48:29.771Z,13.40
2023-05-21T05:50:57.205Z,15.48
2023-05-21T05:53:24.443Z,15.07
2023-05-21T05:55:51.410Z,15.38
2023-05-21T05:58:18.490Z,15.40
2023-05-21T06:00:45.586Z,15.25
2023-05-21T06:03:12.755Z,15.13
2023-05-21T06:05:40.100Z,15.50
2023-05-21T06:08:07.515Z,15.00
2023-05-21T06:10:34.611Z,14.73
2023-05-21T06:13:01.647Z,14.60
2023-05-21T06:15:28.658Z,15.13
2023-05-21T06:17:55.806Z,14.50
2023-05-21T06:20:22.810Z,13.75
2023-05-21T06:22:49.813Z,13.68
2023-05-21T06:25:16.939Z,14.77
2023-05-21T06:27:44.055Z,14.73
2023-05-21T06:30:11.287Z,13.40
2023-05-21T06:32:38.304Z,15.20
2023-05-21T06:35:06.279Z,15.10
2023-05-21T06:37:33.323Z,14.18
2023-05-21T06:40:00.470Z,15.10
2023-05-21T06:42:27.473Z,14.25
2023-05-21T06:44:54.645Z,15.20
2023-05-21T06:47:21.723Z,15.30
2023-05-21T06:49:48.777Z,15.82
2023-05-21T06:52:16.004Z,16.52
2023-05-21T06:54:43.098Z,15.70
2023-05-21T06:57:10.179Z,16.00
2023-05-21T06:59:37.224Z,16.50
2023-05-21T07:02:04.721Z,16.73
2023-05-21T07:04:32.184Z,16.77
2023-05-21T07:06:59.141Z,15.63
2023-05-21T07:09:26.194Z,16.30
2023-05-21T07:11:53.424Z,16.02
2023-05-21T07:14:20.596Z,16.27
2023-05-21T07:16:47.666Z,15.60
2023-05-21T07:19:15.496Z,15.15
2023-05-21T07:21:42.547Z,14.85
2023-05-21T07:24:09.588Z,15.00
2023-05-21T07:26:36.738Z,14.40
2023-05-21T07:29:03.895Z,14.52
2023-05-21T07:31:31.067Z,15.07
2023-05-21T07:33:58.178Z,15.70
2023-05-21T07:36:26.515Z,14.57
2023-05-21T07:38:53.918Z,15.00
2023-05-21T07:41:22.063Z,14.60
2023-05-21T07:43:49.424Z,15.00
2023-05-21T07:46:16.533Z,14.35
2023-05-21T07:48:43.778Z,14.85
2023-05-21T07:51:11.689Z,14.70
2023-05-21T07:53:38.831Z,13.70
2023-05-21T07:56:06.714Z,14.43
2023-05-21T07:58:35.262Z,13.57
2023-05-21T08:01:03.055Z,13.10
2023-05-21T08:03:33.021Z,13.50
2023-05-21T08:06:00.175Z,13.00
2023-05-21T08:08:27.527Z,13.88
2023-05-21T08:10:54.684Z,13.15
2023-05-21T08:13:22.061Z,12.60
2023-05-21T08:15:52.048Z,13.02
2023-05-21T08:18:20.195Z,12.40
2023-05-21T08:20:48.483Z,12.50
2023-05-21T08:23:15.678Z,12.07
2023-05-21T08:25:42.960Z,12.50
2023-05-21T08:28:10.026Z,11.40
2023-05-21T08:30:37.367Z,12.63
2023-05-21T08:33:04.595Z,12.27
2023-05-21T08:35:31.811Z,12.10
2023-05-21T08:37:59.562Z,12.43
2023-05-21T08:40:26.800Z,12.43
2023-05-21T08:42:54.086Z,11.70
2023-05-21T08:45:22.362Z,12.40
2023-05-21T08:47:57.631Z,13.00
2023-05-21T08:50:28.836Z,13.00
2023-05-21T08:52:56.432Z,12.13
2023-05-21T08:55:24.393Z,12.32
2023-05-21T08:57:54.746Z,12.95
2023-05-21T09:00:22.152Z,13.10
2023-05-21T09:02:49.301Z,11.27
2023-05-21T09:05:17.104Z,12.35
2023-05-21T09:07:52.829Z,13.00
2023-05-21T09:10:24.150Z,12.25
2023-05-21T09:12:51.503Z,12.35
2023-05-21T09:15:18.988Z,13.18
2023-05-21T09:17:49.228Z,12.50
2023-05-21T09:20:16.782Z,12.65
2023-05-21T09:22:46.138Z,12.20
2023-05-21T09:25:16.330Z,12.23
2023-05-21T09:27:43.898Z,13.60
2023-05-21T09:30:13.479Z,13.32
2023-05-21T09:32:41.491Z,13.43
2023-05-21T09:35:13.574Z,14.07
2023-05-21T09:37:47.358Z,13.07
2023-05-21T09:40:23.171Z,12.80
2023-05-21T09:42:54.651Z,13.23
2023-05-21T09:45:26.520Z,13.50
2023-05-21T09:47:55.294Z,12.50
2023-05-21T09:50:28.457Z,13.27
2023-05-21T09:52:56.435Z,12.40
2023-05-21T09:55:25.432Z,13.60
2023-05-21T09:57:53.436Z,12.87
2023-05-21T10:00:25.309Z,12.93
2023-05-21T10:02:56.871Z,13.32
2023-05-21T10:05:29.437Z,13.55
2023-05-21T10:08:02.184Z,12.90
2023-05-21T10:10:30.687Z,13.80
2023-05-21T10:13:10.238Z,12.43
2023-05-21T10:15:42.488Z,12.77
2023-05-21T10:18:12.428Z,11.93
2023-05-21T10:20:40.151Z,13.10
2023-05-21T10:23:07.858Z,12.38
2023-05-21T10:25:36.202Z,12.80
2023-05-21T10:28:03.540Z,13.43
2023-05-21T10:30:31.071Z,12.70
2023-05-21T10:32:59.802Z,12.80
2023-05-21T10:35:27.725Z,13.38
2023-05-21T10:37:57.151Z,13.35
2023-05-21T10:40:24.186Z,15.32
2023-05-21T10:43:18.591Z,13.50
2023-05-21T10:46:00.388Z,13.10
2023-05-21T10:48:51.057Z,13.10
2023-05-21T10:51:27.148Z,13.90
2023-05-21T10:54:03.133Z,12.98
2023-05-21T10:56:30.129Z,13.10
2023-05-21T10:59:12.568Z,12.90
2023-05-21T11:01:42.199Z,12.93
2023-05-21T11:04:09.946Z,13.43
2023-05-21T11:06:36.978Z,12.30
2023-05-21T11:09:14.653Z,12.20
2023-05-21T11:11:48.491Z,14.15
2023-05-21T11:14:42.142Z,14.20
2023-05-21T11:17:13.974Z,14.98
2023-05-21T11:19:48.043Z,13.73
2023-05-21T11:22:21.647Z,13.52
2023-05-21T11:24:51.174Z,13.90
2023-05-21T11:27:37.741Z,13.00
2023-05-21T11:30:06.069Z,13.38
2023-05-21T11:32:36.561Z,12.77
2023-05-21T11:35:03.769Z,12.50
2023-05-21T11:37:33.255Z,12.60
2023-05-21T11:40:20.520Z,12.93
2023-05-21T11:42:55.284Z,12.70
2023-05-21T11:45:32.840Z,11.95
2023-05-21T11:48:00.731Z,12.95
2023-05-21T11:50:30.658Z,12.30
2023-05-21T11:52:59.924Z,12.10
2023-05-21T11:55:27.456Z,13.75
2023-05-21T11:57:55.545Z,13.00
2023-05-21T12:00:23.210Z,12.82
2023-05-21T12:02:53.995Z,12.48
2023-05-21T12:05:21.860Z,12.30
2023-05-21T12:07:52.544Z,12.50
2023-05-21T12:10:24.132Z,11.97
2023-05-21T12:12:56.412Z,12.35
2023-05-21T12:15:26.180Z,12.43
2023-05-21T12:17:54.385Z,11.98
2023-05-21T12:20:21.986Z,11.65
2023-05-21T12:22:50.263Z,12.15
2023-05-21T12:25:21.256Z,11.82
2023-05-21T12:27:52.691Z,11.50
2023-05-21T12:30:21.279Z,11.90
2023-05-21T12:32:49.442Z,12.07
2023-05-21T12:35:24.505Z,12.05
2023-05-21T12:37:52.098Z,11.85
2023-05-21T12:40:19.830Z,12.05
2023-05-21T12:42:47.090Z,11.80
2023-05-21T12:45:14.746Z,11.90
2023-05-21T12:47:42.036Z,11.45
2023-05-21T12:50:12.348Z,11.50
2023-05-21T12:52:41.104Z,11.32
2023-05-21T12:55:10.523Z,11.20
2023-05-21T12:57:41.576Z,11.70
2023-05-21T13:00:10.423Z,11.85
2023-05-21T13:02:45.887Z,11.40
2023-05-21T13:05:20.229Z,11.90
2023-05-21T13:07:47.879Z,11.82
2023-05-21T13:10:18.931Z,11.82
2023-05-21T13:12:46.596Z,10.77
2023-05-21T13:15:14.478Z,11.10
2023-05-21T13:17:41.659Z,11.15
2023-05-21T13:20:18.428Z,10.27
2023-05-21T13:22:47.399Z,10.75
2023-05-21T13:25:16.825Z,10.45
2023-05-21T13:27:44.512Z,10.80
2023-05-21T13:30:12.234Z,10.73
2023-05-21T13:32:40.968Z,11.32
2023-05-21T13:35:08.556Z,11.02
2023-05-21T13:37:38.578Z,10.73
2023-05-21T13:40:07.330Z,11.20
2023-05-21T13:42:35.463Z,11.10
2023-05-21T13:45:02.624Z,10.90
2023-05-21T13:47:29.611Z,11.50
2023-05-21T13:49:56.816Z,10.90
2023-05-21T13:52:23.984Z,11.48
2023-05-21T13:54:51.298Z,10.65
2023-05-21T13:57:18.522Z,11.10
2023-05-21T13:59:45.623Z,11.68
2023-05-21T14:02:12.779Z,10.90
2023-05-21T14:04:40.036Z,11.20
2023-05-21T14:07:07.660Z,10.93
2023-05-21T14:09:34.878Z,10.40
2023-05-21T14:12:03.903Z,10.30
2023-05-21T14:14:32.396Z,10.07
2023-05-21T14:16:59.936Z,10.40
2023-05-21T14:19:27.298Z,10.23
2023-05-21T14:21:54.778Z,11.20
2023-05-21T14:24:21.806Z,9.93
2023-05-21T14:26:48.974Z,10.30
2023-05-21T14:29:16.283Z,10.40
2023-05-21T14:31:43.548Z,10.40
2023-05-21T14:34:10.709Z,10.20
2023-05-21T14:36:37.944Z,10.77
2023-05-21T14:39:05.094Z,10.50
2023-05-21T14:41:32.253Z,10.40
2023-05-21T14:43:59.307Z,10.15
2023-05-21T14:46:26.518Z,11.05
2023-05-21T14:48:55.439Z,10.57
2023-05-21T14:51:22.675Z,10.35
2023-05-21T14:53:50.030Z,10.30
2023-05-21T14:56:17.256Z,10.32
2023-05-21T14:58:44.338Z,10.02
2023-05-21T15:01:12.063Z,10.65
2023-05-21T15:03:39.174Z,9.80
2023-05-21T15:06:06.419Z,9.90
2023-05-21T15:08:33.491Z,9.75
2023-05-21T15:11:00.685Z,10.10
2023-05-21T15:13:27.678Z,10.32
2023-05-21T15:15:54.989Z,10.27
2023-05-21T15:18:22.173Z,10.75
2023-05-21T15:20:49.179Z,10.40
2023-05-21T15:23:17.691Z,10.13
2023-05-21T15:25:45.850Z,10.30
2023-05-21T15:28:13.187Z,10.07
2023-05-21T15:30:40.814Z,9.75
2023-05-21T15:33:07.995Z,9.70
2023-05-21T15:35:36.623Z,9.80
2023-05-21T15:38:04.152Z,9.82
2023-05-21T15:40:32.320Z,9.63
2023-05-21T15:42:59.499Z,10.45
2023-05-21T15:45:26.636Z,9.40
2023-05-21T15:47:53.655Z,9.15
2023-05-21T15:50:21.057Z,9.70
2023-05-21T15:52:48.534Z,8.73
2023-05-21T15:55:16.693Z,6.93
2023-05-21T15:57:43.736Z,5.90
2023-05-21T16:00:11.516Z,4.40
2023-05-21T16:02:38.673Z,4.10
2023-05-21T16:05:05.889Z,3.40
2023-05-21T16:07:33.556Z,3.30
2023-05-21T16:10:01.376Z,3.78
2023-05-21T16:12:28.502Z,3.83
2023-05-21T16:14:55.655Z,3.70
2023-05-21T16:17:24.073Z,5.20
2023-05-21T16:19:51.228Z,4.70
2023-05-21T16:22:20.790Z,5.20
2023-05-21T16:24:48.227Z,5.18
2023-05-21T16:27:15.384Z,4.80
2023-05-21T16:29:42.988Z,5.20
2023-05-21T16:32:13.059Z,5.60
2023-05-21T16:34:40.313Z,6.28
2023-05-21T16:37:09.628Z,5.90
2023-05-21T16:39:37.491Z,5.82
2023-05-21T16:42:04.729Z,5.40
2023-05-21T16:44:32.329Z,5.40
2023-05-21T16:47:00.283Z,5.55
2023-05-21T16:49:28.271Z,5.00
2023-05-21T16:51:55.453Z,5.47
2023-05-21T16:54:22.723Z,5.47
2023-05-21T16:56:50.045Z,5.57
2023-05-21T16:59:17.334Z,5.78
2023-05-21T17:01:44.481Z,5.50
2023-05-21T17:04:11.798Z,5.25
2023-05-21T17:06:38.984Z,5.00
2023-05-21T17:09:06.829Z,5.57
2023-05-21T17:11:35.067Z,5.50
2023-05-21T17:14:02.220Z,5.00
2023-05-21T17:16:29.626Z,5.80
2023-05-21T17:18:56.754Z,5.10
2023-05-21T17:21:23.963Z,5.10
2023-05-21T17:23:51.131Z,5.00
2023-05-21T17:26:18.342Z,5.07
2023-05-21T17:28:45.468Z,4.97
2023-05-21T17:31:12.672Z,5.18
2023-05-21T17:33:39.733Z,4.90
2023-05-21T17:36:06.993Z,4.97
2023-05-21T17:38:34.055Z,4.30
2023-05-21T17:41:01.426Z,3.97
2023-05-21T17:43:28.620Z,3.40
2023-05-21T17:45:55.884Z,3.30
2023-05-21T17:48:23.197Z,3.60
2023-05-21T17:50:51.078Z,4.63
2023-05-21T17:53:18.439Z,4.30
2023-05-21T17:55:45.701Z,4.30
2023-05-21T17:58:12.789Z,4.00
2023-05-21T18:00:39.997Z,4.30
2023-05-21T18:03:07.125Z,4.00
2023-05-21T18:05:34.610Z,4.30
2023-05-21T18:08:02.872Z,4.20
2023-05-21T18:10:30.007Z,4.30
2023-05-21T18:12:57.147Z,3.90
2023-05-21T18:15:24.241Z,4.75
2023-05-21T18:17:51.508Z,4.07
2023-05-21T18:20:18.801Z,3.90
2023-05-21T18:22:45.992Z,4.00
2023-05-21T18:25:13.002Z,3.70
2023-05-21T18:27:40.110Z,4.13
2023-05-21T18:30:08.612Z,4.30
2023-05-21T18:32:38.945Z,4.30
2023-05-21T18:35:14.426Z,4.38
2023-05-21T18:37:44.647Z,4.57
2023-05-21T18:40:13.177Z,4.50
2023-05-21T18:42:40.470Z,4.40
2023-05-21T18:45:09.237Z,4.60
2023-05-21T18:47:36.845Z,4.40
2023-05-21T18:50:04.329Z,4.30
2023-05-21T18:52:31.411Z,4.22
2023-05-21T18:54:58.526Z,4.30
2023-05-21T18:57:25.771Z,4.35
2023-05-21T18:59:52.737Z,4.40
2023-05-21T19:02:19.968Z,3.85
2023-05-21T19:04:47.194Z,4.00
2023-05-21T19:07:16.033Z,3.70
2023-05-21T19:09:43.184Z,4.20
2023-05-21T19:12:10.530Z,3.58
2023-05-21T19:14:38.450Z,3.60
2023-05-21T19:17:05.695Z,3.38
2023-05-21T19:19:32.740Z,3.60
2023-05-21T19:22:00.072Z,4.00
2023-05-21T19:24:27.081Z,3.47
2023-05-21T19:26:54.239Z,4.78
2023-05-21T19:29:21.679Z,3.70
2023-05-21T19:31:48.868Z,3.83
2023-05-21T19:34:16.391Z,4.60
2023-05-21T19:36:52.917Z,4.20
2023-05-21T19:39:21.678Z,4.60
2023-05-21T19:41:48.932Z,4.60
2023-05-21T19:44:17.353Z,3.88
2023-05-21T19:46:44.474Z,4.40
2023-05-21T19:49:14.079Z,4.25
2023-05-21T19:51:41.206Z,4.10
2023-05-21T19:54:08.418Z,4.03
2023-05-21T19:56:35.516Z,3.67
2023-05-21T19:59:02.651Z,4.20
2023-05-21T20:01:33.279Z,3.90
2023-05-21T20:04:01.064Z,4.00
2023-05-21T20:06:28.132Z,3.80
2023-05-21T20:08:55.521Z,3.60
2023-05-21T20:11:22.961Z,3.70
2023-05-21T20:13:53.359Z,3.50
2023-05-21T20:16:21.510Z,4.07
2023-05-21T20:18:49.311Z,3.38
2023-05-21T20:21:21.440Z,3.80
2023-05-21T20:23:49.141Z,4.00
2023-05-21T20:26:17.087Z,4.00
2023-05-21T20:28:44.110Z,3.90
2023-05-21T20:31:11.605Z,3.95
2023-05-21T20:33:40.923Z,4.00
2023-05-21T20:36:08.251Z,4.23
2023-05-21T20:38:37.239Z,3.80
2023-05-21T20:41:04.987Z,4.00
2023-05-21T20:43:33.033Z,3.70
2023-05-21T20:46:01.788Z,3.60
2023-05-21T20:48:31.990Z,3.72
2023-05-21T20:51:00.062Z,4.25
2023-05-21T20:53:27.374Z,4.78
2023-05-21T20:55:54.903Z,4.00
2023-05-21T20:58:24.114Z,4.38
2023-05-21T21:00:51.499Z,4.95
2023-05-21T21:03:21.708Z,4.57
2023-05-21T21:05:48.960Z,4.40
2023-05-21T21:08:16.300Z,4.45
2023-05-21T21:10:46.803Z,4.60
2023-05-21T21:13:14.543Z,4.10
2023-05-21T21:15:43.869Z,4.23
2023-05-21T21:18:12.596Z,4.00
2023-05-21T21:20:41.470Z,4.50
2023-05-21T21:23:09.023Z,4.40
2023-05-21T21:25:36.409Z,4.40
2023-05-21T21:28:03.623Z,4.32
2023-05-21T21:30:30.958Z,4.57
2023-05-21T21:32:58.163Z,4.70
2023-05-21T21:35:25.333Z,4.60
2023-05-21T21:37:52.432Z,4.10
2023-05-21T21:40:19.706Z,4.47
2023-05-21T21:42:46.739Z,4.55
2023-05-21T21:45:13.863Z,4.90
2023-05-21T21:47:41.160Z,4.80
2023-05-21T21:50:08.888Z,4.30
2023-05-21T21:52:40.162Z,4.60
2023-05-21T21:55:11.187Z,4.80
2023-05-21T21:57:39.476Z,4.83
2023-05-21T22:00:17.400Z,4.93
2023-05-21T22:02:46.619Z,5.17
2023-05-21T22:05:17.020Z,4.90
2023-05-21T22:07:47.865Z,4.57
2023-05-21T22:10:16.368Z,4.90
2023-05-21T22:12:44.288Z,4.97
2023-05-21T22:15:18.626Z,6.28
2023-05-21T22:17:47.627Z,5.90
2023-05-21T22:20:15.117Z,4.90
2023-05-21T22:22:42.213Z,4.70
2023-05-21T22:25:09.483Z,4.95
2023-05-21T22:27:36.564Z,4.80
2023-05-21T22:30:04.879Z,4.90
2023-05-21T22:32:31.887Z,4.90
2023-05-21T22:34:58.948Z,5.20
2023-05-21T22:37:26.290Z,5.13
2023-05-21T22:39:53.328Z,5.10
2023-05-21T22:42:20.471Z,4.80
2023-05-21T22:44:47.559Z,4.80
2023-05-21T22:47:14.721Z,5.60
2023-05-21T22:49:42.941Z,5.07
2023-05-21T22:52:10.743Z,5.10
2023-05-21T22:54:38.160Z,5.50
2023-05-21T22:57:05.660Z,5.50
2023-05-21T22:59:33.394Z,5.50
2023-05-21T23:02:00.862Z,5.40
2023-05-21T23:04:43.869Z,5.82
2023-05-21T23:07:12.506Z,4.90
2023-05-21T23:09:39.686Z,5.07
2023-05-21T23:12:07.399Z,5.00
2023-05-21T23:14:34.485Z,5.60
2023-05-21T23:17:05.635Z,5.50
2023-05-21T23:19:33.001Z,5.28
2023-05-21T23:22:00.580Z,5.10
2023-05-21T23:24:29.604Z,5.25
2023-05-21T23:27:01.892Z,5.07
2023-05-21T23:29:31.999Z,5.30
2023-05-21T23:32:00.958Z,4.80
2023-05-21T23:34:28.396Z,5.00
2023-05-21T23:36:55.935Z,4.95
2023-05-21T23:39:24.479Z,5.10
2023-05-21T23:41:51.582Z,5.30
2023-05-21T23:44:20.298Z,4.97
2023-05-21T23:46:47.519Z,4.90
2023-05-21T23:49:14.664Z,5.30
2023-05-21T23:51:41.819Z,5.20
2023-05-21T23:54:08.863Z,5.15
2023-05-21T23:56:36.014Z,5.20
2023-05-21T23:59:02.974Z,5.60
